• Join FlightAware (Why Join?)
  • Login
  • US Flag 
08:53AM EDT


 

Airport Tracker/Info


-or-


 

Live Flight TrackerFlight Track Log ✈ SWA662 ✈ 10-Jun-2013 ✈ KLAX - KDEN

Flight Track Log - Related Links

Times and Time Zones

All times are in EDT time to prevent confusion due to time zone crossing. See the SWA662 flight status page for this flight to view local times or setup timezone preferences in your user account.

Time Position Orientation Groundspeed Altitude Reporting Facility
EDT Latitude Longitude Course Direction KTS MPH feet Rate Location/Type
12:15AM 33.9000 -118.4833 90° East 217 250 2,700  Level Southern California TRACON
12:16AM 33.8333 -118.5000 192° South 270 311 5,100 2,460 Climbing Southern California TRACON
12:17AM 33.7619 -118.5128 188° South 291 335 7,900 2,940 Climbing Los Angeles Center
12:18AM 33.6875 -118.4831 162° South 310 357 11,300 2,640 Climbing Los Angeles Center
12:19AM 33.6481 -118.3528 110° East 360 414 13,400 2,340 Climbing Los Angeles Center
12:20AM 33.6333 -118.2270 90° East  Level FlightAware Approximate
12:20AM 33.6442 -118.2242 92° East 397 457 16,200  Level Los Angeles Center
12:21AM 33.7081 -118.1208 53° Northeast 414 476 18,500 2,220 Climbing Los Angeles Center
12:22AM 33.8008 -118.0383 36° Northeast 419 482 20,800 2,220 Climbing Los Angeles Center
12:23AM 33.8975 -117.9514 37° Northeast 434 499 23,100 2,280 Climbing Los Angeles Center
12:24AM 34.0144 -117.8458 37° Northeast 440 506 25,600 1,920 Climbing Los Angeles Center
12:25AM 34.1139 -117.7464 40° Northeast 459 528 27,100 1,380 Climbing Los Angeles Center
12:26AM 34.2031 -117.6242 49° Northeast 486 559 28,500 1,380 Climbing Los Angeles Center
12:27AM 34.2953 -117.4981 48° Northeast 498 573 30,000 1,560 Climbing Los Angeles Center
12:28AM 34.3928 -117.3647 48° Northeast 507 583 31,700 1,680 Climbing Los Angeles Center
12:29AM 34.4847 -117.2386 48° Northeast 504 580 33,500 1,440 Climbing Los Angeles Center
12:30AM 34.5750 -117.1125 49° Northeast 500 575 34,700 1,080 Climbing Los Angeles Center
12:31AM 34.6664 -116.9869 48° Northeast 501 577 35,800 1,080 Climbing Los Angeles Center
12:32AM 34.7756 -116.8353 49° Northeast 499 574 37,000 540 Climbing Los Angeles Center
12:33AM 34.8658 -116.7097 49° Northeast 496 571 37,000  Level Los Angeles Center
12:34AM 34.9567 -116.5819 49° Northeast 499 574 37,000  Level Los Angeles Center
12:35AM 35.0525 -116.4622 46° Northeast 497 572 37,000  Level Los Angeles Center
12:36AM 35.1492 -116.3417 46° Northeast 498 573 37,000  Level Los Angeles Center
12:37AM 35.2467 -116.2208 45° Northeast 500 575 37,000  Level Los Angeles Center
12:38AM 35.3414 -116.0983 47° Northeast 499 574 37,000  Level Los Angeles Center
12:39AM 35.4556 -115.9531 46° Northeast 495 570 37,000  Level Los Angeles Center
12:40AM 35.5458 -115.8453 44° Northeast 498 573 37,000  Level Los Angeles Center
12:41AM 35.6219 -115.7464 47° Northeast 498 573 37,000  Level Los Angeles Center
12:42AM 35.7544 -115.5775 46° Northeast 491 565 37,000  Level Los Angeles Center
12:43AM 35.8503 -115.4556 46° Northeast 495 570 37,000  Level Los Angeles Center
12:44AM 35.9442 -115.3331 47° Northeast 496 571 37,000  Level Los Angeles Center
12:45AM 36.0333 -115.2097 48° Northeast 487 560 37,000  Level Los Angeles Center
12:46AM 36.0928 -115.0600 64° Northeast 489 563 37,000  Level Los Angeles Center
12:47AM 36.1478 -114.9036 66° East 498 573 37,000  Level Los Angeles Center
12:49AM 36.2164 -114.7119 66° East 508 585 37,000  Level Los Angeles Center
12:50AM 36.2722 -114.5544 66° East 503 579 37,000  Level Los Angeles Center
12:51AM 36.3275 -114.3975 66° East 500 575 37,000  Level Los Angeles Center
12:52AM 36.3831 -114.2389 66° East 502 578 37,000  Level Los Angeles Center
12:53AM 36.4269 -114.1108 67° East 503 579 37,000  Level Los Angeles Center
12:54AM 36.4933 -113.9186 67° East 505 581 37,000  Level Los Angeles Center
12:55AM 36.5567 -113.7331 67° East 505 581 37,000  Level Los Angeles Center
12:56AM 36.6106 -113.5761 67° East 498 573 37,000  Level Los Angeles Center
12:57AM 36.6647 -113.4178 67° East 499 574 37,000  Level Los Angeles Center
12:58AM 36.7075 -113.2897 67° East 501 577 37,000  Level Los Angeles Center
12:59AM 36.7719 -113.0989 67° East 501 577 37,000  Level Los Angeles Center
01:00AM 36.8269 -112.9397 67° East 503 579 37,000  Level Los Angeles Center
01:01AM 36.8792 -112.7794 68° East 503 579 37,000  Level Los Angeles Center
01:02AM 36.9417 -112.5892 68° East 498 573 37,000  Level Los Angeles Center
01:03AM 36.9942 -112.4325 67° East 493 567 37,000  Level Los Angeles Center
01:04AM 37.0456 -112.2758 68° East 491 565 37,000  Level Los Angeles Center
01:05AM 37.0975 -112.1167 68° East 496 571 37,000  Level Los Angeles Center
01:06AM 37.1492 -111.9575 68° East 497 572 37,000  Level Los Angeles Center
01:07AM 37.2014 -111.7975 68° East 499 574 37,000  Level Los Angeles Center
01:07AM 37.2236 -111.7322 67° East 500 575 37,000  Level Denver Center
01:08AM 37.2719 -111.5725 69° East 494 568 37,000  Level Denver Center
01:09AM 37.3228 -111.4108 68° East 498 573 37,000  Level Denver Center
01:10AM 37.3747 -111.2486 68° East 503 579 37,000  Level Denver Center
01:11AM 37.4253 -111.0889 68° East 495 570 37,000  Level Denver Center
01:12AM 37.4836 -110.8975 69° East 491 565 37,000  Level Denver Center
01:13AM 37.5336 -110.7386 68° East 489 563 37,000  Level Denver Center
01:14AM 37.5831 -110.5772 69° East 494 568 37,000  Level Denver Center
01:15AM 37.6272 -110.4314 69° East 493 567 37,000  Level Denver Center
01:16AM 37.6819 -110.2508 69° East 493 567 37,000  Level Denver Center
01:17AM 37.7300 -110.0953 69° East 495 570 37,000  Level Denver Center
01:18AM 37.7764 -109.9403 69° East 492 566 37,000  Level Denver Center
01:19AM 37.8283 -109.7656 69° East 477 549 37,000  Level Denver Center
01:21AM 37.8744 -109.6147 69° East 479 551 37,000  Level Denver Center
01:22AM 37.9194 -109.4619 69° East 483 556 37,000  Level Denver Center
01:23AM 37.9753 -109.2844 68° East 487 560 37,000  Level Denver Center
01:24AM 38.0392 -109.1414 60° Northeast 487 560 37,000  Level Denver Center
01:25AM 38.1083 -108.9778 62° Northeast 495 570 37,000  Level Denver Center
01:26AM 38.1711 -108.8339 61° Northeast 490 564 37,000  Level Denver Center
01:27AM 38.2342 -108.6894 61° Northeast 488 562 37,000  Level Denver Center
01:28AM 38.3058 -108.5222 61° Northeast 486 559 37,000  Level Denver Center
01:29AM 38.3675 -108.3797 61° Northeast 482 555 37,000  Level Denver Center
01:30AM 38.4281 -108.2403 61° Northeast 474 545 37,000  Level Denver Center
01:31AM 38.4978 -108.0756 62° Northeast 474 545 37,000  Level Denver Center
01:32AM 38.5578 -107.9331 62° Northeast 478 550 37,000  Level Denver Center
01:33AM 38.6186 -107.7883 62° Northeast 482 555 37,000  Level Denver Center
01:34AM 38.6897 -107.6186 62° Northeast 485 558 37,000  Level Denver Center
01:35AM 38.7500 -107.4736 62° Northeast 484 557 37,000  Level Denver Center
01:36AM 38.8108 -107.3272 62° Northeast 487 560 37,000  Level Denver Center
01:37AM 38.8822 -107.1553 62° Northeast 488 562 37,000  Level Denver Center
01:38AM 38.9408 -107.0086 63° Northeast 484 557 37,000  Level Denver Center
01:39AM 39.0006 -106.8650 62° Northeast 478 550 37,000 -900 Level Denver Center
01:40AM 39.0667 -106.7006 63° Northeast 469 540 35,200 -2,700 Descending Denver Center
01:41AM 39.1258 -106.5553 62° Northeast 476 548 31,600 -3,180 Descending Denver Center
01:42AM 39.1861 -106.4033 63° Northeast 495 570 28,800 -2,340 Descending Denver Center
01:43AM 39.2539 -106.2367 62° Northeast 473 544 26,900 -1,920 Descending Denver Center
01:44AM 39.3028 -106.1122 63° Northeast 457 526 25,000 -2,040 Descending Denver Center
01:45AM 39.3589 -105.9722 63° Northeast 444 511 22,800 -2,220 Descending Denver Center
01:46AM 39.4194 -105.8189 63° Northeast 429 494 20,600 -1,980 Descending Denver Center
01:47AM 39.4717 -105.6889 62° Northeast 404 465 18,800 -1,800 Descending Denver Center
01:48AM 39.5203 -105.5644 63° Northeast 388 447 17,000 -900 Descending Denver Center
01:49AM 39.5694 -105.4317 64° Northeast 383 441 17,000  Level Denver Center
01:50AM 39.6169 -105.3117 63° Northeast 375 432 17,000  Level Denver Center
01:51AM 39.6700 -105.1722 64° Northeast 375 432 17,000 -420 Level Denver Center
01:52AM 39.7172 -105.0519 63° Northeast 373 429 16,200 -1,440 Descending Denver Center
01:53AM 39.7650 -104.9261 64° Northeast 361 415 14,100 -1,980 Descending Denver Center
01:54AM 39.8325 -104.8433 43° Northeast 351 404 12,300 -1,560 Descending Denver Center
01:55AM 39.9219 -104.8419 North 318 366 11,000 -1,200 Descending Denver Center
01:56AM 39.9994 -104.8394 North 277 319 10,000 -900 Descending Denver Center
01:57AM 40.0467 -104.8097 26° Northeast 263 303 9,200 -900 Descending Denver Center
01:58AM 40.0853 -104.7214 60° Northeast 220 253 8,200 -780 Descending Denver Center
01:59AM 40.0447 -104.6947 153° Southeast 179 206 7,700 -600 Descending Denver Center
02:00AM 39.9936 -104.6950 180° South 181 208 7,100 -720 Descending Denver Center
02:01AM 39.9503 -104.6956 181° South 159 183 6,300 -780 Descending Denver Center
02:02AM 39.9086 -104.6958 180° South 150 173 5,600 -540 Descending Denver Center
02:03AM 39.8767 -104.6961 180° South 128 147 5,300 -300 Descending Denver Center
02:05AM 39.8617 -104.6732 90° East  Level Estimated
02:12AM 39.8617 -104.6732 90° East  Level Estimated
02:13AM 39.8617 -104.6732 90° East  Level Estimated